Time;durP1;ratioP1;P1;durP2;ratioP2;P2;SDS_P1;SDS_P2;PMS_P1;PMS_P2;Temp;Humidity;BMP_temperature;BMP_pressure;BME280_temperature;BME280_humidity;BME280_pressure;Samples;Min_cycle;Max_cycle;Signal;HPM_P1;HPM_P2
2023/03/21 00:00:29;;;;;;;19.45;14.60;;;;;20.90;100593.00;;;;2008748;29;20376;-79
2023/03/21 00:01:30;;;;;;;18.13;14.20;;;;;20.90;100591.00;;;;2008020;29;20215;-79
2023/03/21 00:02:30;;;;;;;19.27;14.77;;;;;20.90;100595.00;;;;2009711;29;20316;-80
2023/03/21 00:03:32;;;;;;;17.70;13.47;;;;;20.90;100593.00;;;;2008028;29;20224;-80
2023/03/21 00:04:32;;;;;;;19.13;14.88;;;;;20.90;100593.00;;;;2015950;29;20475;-80
2023/03/21 00:05:33;;;;;;;17.13;13.13;;;;;20.90;100590.00;;;;2015022;29;20223;-80
2023/03/21 00:06:33;;;;;;;15.73;12.13;;;;;20.90;100594.00;;;;2006594;29;20220;-79
2023/03/21 00:07:33;;;;;;;16.17;13.17;;;;;20.90;100586.00;;;;1997536;29;20262;-80
2023/03/21 00:08:34;;;;;;;16.17;13.40;;;;;20.90;100589.00;;;;1991282;29;20826;-78
2023/03/21 00:09:34;;;;;;;15.10;12.17;;;;;20.90;100583.00;;;;2009154;29;20672;-80
2023/03/21 00:10:34;;;;;;;17.33;14.10;;;;;20.90;100590.00;;;;2007303;29;20211;-80
2023/03/21 00:11:35;;;;;;;17.13;14.50;;;;;20.90;100587.00;;;;2008327;29;20718;-80
2023/03/21 00:12:36;;;;;;;15.77;12.10;;;;;20.90;100591.00;;;;2009170;29;20242;-80
2023/03/21 00:13:41;;;;;;;16.88;12.18;;;;;20.90;100579.00;;;;2008578;29;20306;-80
2023/03/21 00:14:42;;;;;;;18.25;12.15;;;;;20.90;100575.00;;;;2007449;29;20244;-80
2023/03/21 00:15:53;;;;;;;14.10;11.70;;;;;20.90;100589.00;;;;2007434;29;20592;-80
2023/03/21 00:16:53;;;;;;;15.63;11.73;;;;;20.90;100583.00;;;;2014531;29;21022;-80
2023/03/21 00:18:02;;;;;;;13.23;10.97;;;;;20.80;100575.00;;;;2011164;29;20249;-80
2023/03/21 00:19:02;;;;;;;13.65;11.05;;;;;20.80;100575.00;;;;2007160;29;20211;-79
2023/03/21 00:20:07;;;;;;;14.73;11.03;;;;;20.90;100568.00;;;;2008867;29;20556;-79
2023/03/21 00:21:07;;;;;;;16.92;11.95;;;;;20.80;100574.00;;;;2008046;29;20318;-79
2023/03/21 00:22:08;;;;;;;16.20;11.87;;;;;20.80;100572.00;;;;2014617;29;20223;-79
2023/03/21 00:23:08;;;;;;;11.70;9.63;;;;;20.80;100566.00;;;;2015469;29;20678;-80
2023/03/21 00:24:08;;;;;;;13.73;10.70;;;;;20.80;100563.00;;;;2008140;29;20816;-79
2023/03/21 00:25:09;;;;;;;13.13;10.47;;;;;20.80;100569.00;;;;2015271;29;20307;-80
2023/03/21 00:26:09;;;;;;;12.37;10.20;;;;;20.80;100564.00;;;;2014295;29;20302;-80
2023/03/21 00:27:10;;;;;;;13.70;9.30;;;;;20.80;100564.00;;;;2007198;29;20223;-79
2023/03/21 00:28:10;;;;;;;14.27;11.60;;;;;20.80;100565.00;;;;2007825;29;20639;-79
2023/03/21 00:29:10;;;;;;;12.60;9.73;;;;;20.80;100564.00;;;;2007673;29;20365;-79
2023/03/21 00:30:11;;;;;;;14.47;10.73;;;;;20.80;100570.00;;;;2009792;29;20211;-80
2023/03/21 00:31:11;;;;;;;15.80;11.20;;;;;20.80;100562.00;;;;2007802;29;20227;-80
2023/03/21 00:32:11;;;;;;;12.73;9.37;;;;;20.80;100548.00;;;;2008206;29;20592;-79
2023/03/21 00:33:12;;;;;;;12.70;10.00;;;;;20.80;100564.00;;;;2007868;29;20594;-79
2023/03/21 00:34:13;;;;;;;16.17;10.23;;;;;20.80;100558.00;;;;2008851;29;20711;-80
2023/03/21 00:35:13;;;;;;;12.27;9.77;;;;;20.80;100575.00;;;;2007552;29;20496;-80
2023/03/21 00:36:14;;;;;;;10.17;9.10;;;;;20.80;100556.00;;;;2008390;29;20255;-79
2023/03/21 00:37:17;;;;;;;11.52;9.38;;;;;20.80;100558.00;;;;2015308;29;20215;-79
2023/03/21 00:38:18;;;;;;;12.00;9.70;;;;;20.80;100560.00;;;;2016283;29;20227;-80
2023/03/21 00:39:19;;;;;;;13.25;8.82;;;;;20.80;100551.00;;;;2007291;29;20271;-80
2023/03/21 00:40:19;;;;;;;13.27;9.07;;;;;20.80;100548.00;;;;2014549;29;20363;-80
2023/03/21 00:41:19;;;;;;;11.30;8.63;;;;;20.80;100550.00;;;;2015050;29;20239;-80
2023/03/21 00:42:20;;;;;;;11.13;9.37;;;;;20.80;100556.00;;;;2007039;29;20219;-80
2023/03/21 00:43:28;;;;;;;10.03;8.70;;;;;20.70;100545.00;;;;2008713;29;20222;-80
2023/03/21 00:44:35;;;;;;;11.05;8.60;;;;;20.80;100544.00;;;;1991785;29;20218;-79
2023/03/21 00:45:36;;;;;;;12.60;9.40;;;;;20.80;100551.00;;;;2007862;29;20224;-80
2023/03/21 00:46:36;;;;;;;10.73;9.50;;;;;20.80;100481.00;;;;2007726;29;20251;-80
2023/03/21 00:47:36;;;;;;;12.00;9.37;;;;;20.70;100542.00;;;;2012991;29;20411;-80
2023/03/21 00:48:37;;;;;;;13.13;9.20;;;;;20.70;100542.00;;;;2016504;29;20218;-80
2023/03/21 00:49:37;;;;;;;9.43;8.30;;;;;20.80;100541.00;;;;2008611;29;20219;-80
2023/03/21 00:50:38;;;;;;;10.30;8.20;;;;;20.70;100536.00;;;;2014128;29;20215;-80
2023/03/21 00:51:38;;;;;;;11.33;8.70;;;;;20.70;100540.00;;;;2014827;29;20222;-79
2023/03/21 00:52:39;;;;;;;10.13;7.97;;;;;20.80;100538.00;;;;2003024;29;20666;-79
2023/03/21 00:53:39;;;;;;;9.97;7.90;;;;;20.70;100538.00;;;;2008215;29;20238;-80
2023/03/21 00:54:39;;;;;;;9.20;7.33;;;;;20.70;100539.00;;;;1987057;29;20206;-79
2023/03/21 00:55:40;;;;;;;10.47;7.90;;;;;20.70;100531.00;;;;2006317;29;20228;-79
2023/03/21 00:56:40;;;;;;;9.27;7.30;;;;;20.70;100533.00;;;;2016061;29;20306;-80
2023/03/21 00:57:41;;;;;;;10.10;7.70;;;;;20.70;100532.00;;;;2012030;29;20223;-80
2023/03/21 00:58:42;;;;;;;10.60;8.23;;;;;20.70;100529.00;;;;2007605;29;20216;-79
2023/03/21 00:59:42;;;;;;;11.00;8.30;;;;;20.80;100535.00;;;;1985426;29;20244;-80
2023/03/21 01:00:42;;;;;;;8.70;6.73;;;;;20.70;100538.00;;;;2012212;29;20267;-80
2023/03/21 01:01:45;;;;;;;10.57;7.87;;;;;20.70;100536.00;;;;2015257;29;20274;-79
2023/03/21 01:02:57;;;;;;;10.20;7.88;;;;;20.70;100527.00;;;;2014178;29;20211;-79
2023/03/21 01:04:04;;;;;;;8.13;6.40;;;;;20.70;100541.00;;;;2008011;29;20218;-80
2023/03/21 01:05:04;;;;;;;10.73;8.05;;;;;20.70;100532.00;;;;2005890;29;20684;-80
2023/03/21 01:06:05;;;;;;;8.30;6.80;;;;;20.70;100539.00;;;;2007627;29;20227;-79
2023/03/21 01:07:06;;;;;;;10.35;6.85;;;;;20.70;100535.00;;;;2007785;29;20227;-78
2023/03/21 01:08:06;;;;;;;10.30;7.00;;;;;20.70;100533.00;;;;2009756;29;20711;-79
2023/03/21 01:09:11;;;;;;;8.63;6.73;;;;;20.70;100538.00;;;;2003088;29;20258;-80
2023/03/21 01:10:11;;;;;;;7.40;6.40;;;;;20.60;100532.00;;;;2003113;29;20224;-80
2023/03/21 01:11:15;;;;;;;8.85;5.85;;;;;20.60;100530.00;;;;2005228;29;20255;-79
2023/03/21 01:12:15;;;;;;;8.75;6.13;;;;;20.70;100537.00;;;;2014924;29;20232;-79
2023/03/21 01:13:17;;;;;;;8.00;6.57;;;;;20.70;100530.00;;;;2011448;29;20346;-80
2023/03/21 01:14:18;;;;;;;8.68;6.80;;;;;20.60;100526.00;;;;2015096;29;20279;-80
2023/03/21 01:15:18;;;;;;;11.02;6.90;;;;;20.70;100527.00;;;;2014772;29;20275;-79
2023/03/21 01:16:19;;;;;;;8.00;5.97;;;;;20.70;100529.00;;;;2005843;29;20669;-79
2023/03/21 01:17:19;;;;;;;7.97;6.40;;;;;20.70;100535.00;;;;2007208;29;20279;-80
2023/03/21 01:18:21;;;;;;;7.97;5.63;;;;;20.70;100526.00;;;;2009616;29;20219;-80
2023/03/21 01:19:24;;;;;;;9.25;6.70;;;;;20.60;100531.00;;;;2002314;29;20280;-79
2023/03/21 01:20:25;;;;;;;9.50;6.70;;;;;20.60;100532.00;;;;2003638;29;20302;-79
2023/03/21 01:21:25;;;;;;;8.20;6.07;;;;;20.60;100532.00;;;;2010472;29;20676;-79
2023/03/21 01:22:26;;;;;;;7.70;6.10;;;;;20.60;100528.00;;;;2007200;29;20259;-79
2023/03/21 01:23:27;;;;;;;7.53;6.20;;;;;20.60;100502.00;;;;2004168;29;20275;-79
2023/03/21 01:24:27;;;;;;;9.00;6.05;;;;;20.60;100529.00;;;;2006545;29;20375;-79
2023/03/21 01:25:28;;;;;;;8.33;7.07;;;;;20.60;100527.00;;;;2006883;29;20745;-78
2023/03/21 01:26:28;;;;;;;9.70;6.50;;;;;20.60;100521.00;;;;2002190;29;20283;-79
2023/03/21 01:27:28;;;;;;;8.60;6.03;;;;;20.60;100528.00;;;;2008860;29;20219;-79
2023/03/21 01:28:29;;;;;;;8.90;6.27;;;;;20.60;100528.00;;;;2006892;29;20224;-79
2023/03/21 01:29:29;;;;;;;7.47;5.57;;;;;20.60;100521.00;;;;2014714;29;20239;-79
2023/03/21 01:30:30;;;;;;;7.97;5.97;;;;;20.60;100519.00;;;;2013772;29;20884;-79
2023/03/21 01:31:30;;;;;;;8.93;5.57;;;;;20.60;100502.00;;;;2007285;29;20704;-79
2023/03/21 01:32:30;;;;;;;8.87;5.80;;;;;20.60;100519.00;;;;2014256;29;20706;-79
2023/03/21 01:33:31;;;;;;;8.07;5.50;;;;;20.60;100521.00;;;;2016148;29;20211;-79
2023/03/21 01:34:31;;;;;;;7.00;5.13;;;;;20.60;100519.00;;;;2006693;29;20217;-79
2023/03/21 01:35:32;;;;;;;6.20;5.53;;;;;20.60;100509.00;;;;2004970;29;20257;-79
2023/03/21 01:36:32;;;;;;;7.50;5.50;;;;;20.60;100523.00;;;;2012783;29;20225;-79
2023/03/21 01:37:33;;;;;;;8.37;5.67;;;;;20.60;100522.00;;;;2007827;29;20212;-80
2023/03/21 01:38:33;;;;;;;7.83;5.63;;;;;20.60;100518.00;;;;2012930;29;20239;-81
2023/03/21 01:39:34;;;;;;;10.50;5.80;;;;;20.60;100514.00;;;;2011780;29;20459;-79
2023/03/21 01:40:35;;;;;;;7.03;5.53;;;;;20.60;100518.00;;;;2007058;29;20946;-80
2023/03/21 01:41:39;;;;;;;7.73;5.30;;;;;20.60;100521.00;;;;2007468;29;20476;-83
2023/03/21 01:42:39;;;;;;;9.38;5.03;;;;;20.60;100515.00;;;;2004200;29;20226;-83
2023/03/21 01:43:40;;;;;;;8.30;5.60;;;;;20.60;100516.00;;;;2006910;29;20231;-82
2023/03/21 01:45:01;;;;;;;6.90;5.00;;;;;20.60;100518.00;;;;2006746;29;20587;-81
2023/03/21 01:46:24;;;;;;;9.40;5.90;;;;;20.60;100510.00;;;;2007147;29;20219;-81
2023/03/21 01:47:24;;;;;;;9.40;5.47;;;;;20.60;100516.00;;;;2006032;29;20220;-81
2023/03/21 01:48:25;;;;;;;6.63;5.13;;;;;20.60;100500.00;;;;2007881;29;20323;-81
2023/03/21 01:49:44;;;;;;;8.73;5.40;;;;;20.60;100502.00;;;;2013969;29;20235;-82
2023/03/21 01:50:45;;;;;;;10.77;6.40;;;;;20.50;100511.00;;;;2006619;29;20222;-83
2023/03/21 01:51:48;;;;;;;12.60;8.07;;;;;20.60;100516.00;;;;2007208;29;20223;-82
2023/03/21 01:52:49;;;;;;;11.05;8.80;;;;;20.60;100508.00;;;;2013168;29;20470;-83
2023/03/21 01:53:49;;;;;;;15.10;12.30;;;;;20.60;100506.00;;;;2014255;29;20219;-83
2023/03/21 01:54:49;;;;;;;18.53;11.80;;;;;20.60;100507.00;;;;2005925;29;20223;-80
2023/03/21 01:55:50;;;;;;;15.17;12.97;;;;;20.60;100502.00;;;;1988091;29;20228;-80
2023/03/21 01:56:51;;;;;;;23.57;16.97;;;;;20.60;100507.00;;;;1997427;29;20238;-81
2023/03/21 01:57:52;;;;;;;23.05;17.42;;;;;20.60;100514.00;;;;1999216;29;20220;-80
2023/03/21 01:58:55;;;;;;;20.55;16.25;;;;;20.60;100498.00;;;;1984729;29;20237;-80
2023/03/21 01:59:55;;;;;;;21.70;18.00;;;;;20.50;100503.00;;;;1991665;29;20693;-80
2023/03/21 02:00:55;;;;;;;22.30;17.43;;;;;20.50;100502.00;;;;2002925;29;20239;-81
2023/03/21 02:01:56;;;;;;;29.37;22.67;;;;;20.50;100503.00;;;;2005597;29;20504;-81
2023/03/21 02:02:58;;;;;;;24.43;19.90;;;;;20.60;100497.00;;;;1990454;29;20308;-81
2023/03/21 02:04:02;;;;;;;27.50;21.40;;;;;20.50;100491.00;;;;1990762;29;20248;-81
2023/03/21 02:05:02;;;;;;;27.10;20.15;;;;;20.60;100499.00;;;;2001394;29;20225;-82
2023/03/21 02:06:11;;;;;;;27.90;21.43;;;;;20.50;100490.00;;;;1993405;29;20221;-81
2023/03/21 02:07:17;;;;;;;27.75;22.13;;;;;20.50;100495.00;;;;1983515;29;20654;-81
2023/03/21 02:08:19;;;;;;;25.45;21.63;;;;;20.50;100491.00;;;;1986247;29;20257;-82
2023/03/21 02:09:21;;;;;;;27.33;19.80;;;;;20.50;100495.00;;;;1998938;29;20220;-76
2023/03/21 02:10:21;;;;;;;25.85;20.40;;;;;20.50;100488.00;;;;2000578;29;20239;-83
2023/03/21 02:11:22;;;;;;;27.87;22.10;;;;;20.50;100484.00;;;;1984600;29;20245;-82
2023/03/21 02:12:23;;;;;;;25.63;20.50;;;;;20.50;100489.00;;;;1980926;29;20300;-81
2023/03/21 02:13:24;;;;;;;26.40;20.65;;;;;20.50;100491.00;;;;1993670;29;20308;-82
2023/03/21 02:14:24;;;;;;;26.50;20.53;;;;;20.50;100489.00;;;;1999337;29;20247;-83
2023/03/21 02:15:25;;;;;;;27.23;21.07;;;;;20.50;100495.00;;;;1996988;29;20235;-79
2023/03/21 02:16:31;;;;;;;24.40;21.17;;;;;20.50;100483.00;;;;2000036;29;20298;-81
2023/03/21 02:17:42;;;;;;;32.10;26.10;;;;;20.50;100485.00;;;;1984148;29;20244;-81
2023/03/21 02:18:55;;;;;;;31.67;24.90;;;;;20.50;100485.00;;;;1984970;29;20217;-80
2023/03/21 02:20:25;;;;;;;35.50;27.95;;;;;20.50;100479.00;;;;1980839;29;20326;-81
2023/03/21 02:21:25;;;;;;;34.05;26.33;;;;;20.50;100480.00;;;;2003301;29;20223;-79
2023/03/21 02:23:07;;;;;;;38.30;29.20;;;;;20.50;100474.00;;;;2001426;29;20230;-81
2023/03/21 02:24:32;;;;;;;41.60;31.92;;;;;20.50;100483.00;;;;2001614;29;20226;-81
2023/03/21 02:25:42;;;;;;;42.42;32.85;;;;;20.50;100477.00;;;;1990010;29;20677;-81
2023/03/21 02:26:52;;;;;;;38.55;31.50;;;;;20.50;100480.00;;;;1970724;29;20288;-80
2023/03/21 02:28:01;;;;;;;37.58;30.65;;;;;20.50;100471.00;;;;1997779;29;20216;-79
2023/03/21 02:29:06;;;;;;;35.75;30.45;;;;;20.50;100484.00;;;;1991885;29;20307;-78
2023/03/21 02:30:45;;;;;;;35.47;28.75;;;;;20.50;100477.00;;;;1985264;29;20309;-79
2023/03/21 02:32:16;;;;;;;38.03;28.83;;;;;20.50;100483.00;;;;1997233;29;20228;-79
2023/03/21 02:33:19;;;;;;;40.95;30.52;;;;;20.50;100475.00;;;;2000051;29;20772;-79
2023/03/21 02:34:22;;;;;;;37.03;29.27;;;;;20.40;100472.00;;;;1988780;29;20256;-79
2023/03/21 02:35:53;;;;;;;34.15;27.55;;;;;20.40;100475.00;;;;1998627;29;20320;-79
2023/03/21 02:37:05;;;;;;;36.15;28.15;;;;;20.40;100477.00;;;;2005371;29;20294;-79
2023/03/21 02:38:09;;;;;;;32.97;27.60;;;;;20.40;100467.00;;;;1999033;29;20346;-79
2023/03/21 02:39:25;;;;;;;36.80;26.88;;;;;20.40;100468.00;;;;1983657;29;20225;-79
2023/03/21 02:40:43;;;;;;;31.95;25.73;;;;;20.40;100481.00;;;;1993223;29;20719;-79
2023/03/21 02:41:47;;;;;;;27.42;23.13;;;;;20.40;100478.00;;;;1986334;29;20212;-79
2023/03/21 02:42:53;;;;;;;32.90;25.27;;;;;20.40;100471.00;;;;1989698;29;20689;-79
2023/03/21 02:44:10;;;;;;;27.25;23.05;;;;;20.50;100466.00;;;;1999489;29;20217;-79
2023/03/21 02:45:23;;;;;;;29.48;22.70;;;;;20.40;100467.00;;;;1998963;29;20240;-79
2023/03/21 02:46:34;;;;;;;27.13;20.95;;;;;20.40;100467.00;;;;1987066;29;20328;-79
2023/03/21 02:47:38;;;;;;;23.83;20.48;;;;;20.40;100461.00;;;;1977301;29;20252;-79
2023/03/21 02:48:45;;;;;;;27.98;20.70;;;;;20.40;100479.00;;;;1992635;29;20247;-79
2023/03/21 02:49:55;;;;;;;23.73;19.75;;;;;20.40;100474.00;;;;1992220;29;20601;-79
2023/03/21 02:50:56;;;;;;;25.90;19.05;;;;;20.40;100471.00;;;;1987089;29;20579;-79
2023/03/21 02:51:57;;;;;;;23.55;18.73;;;;;20.40;100459.00;;;;1991853;29;20220;-79
2023/03/21 02:52:57;;;;;;;23.80;18.20;;;;;20.40;100467.00;;;;2000193;29;20896;-78
2023/03/21 02:53:59;;;;;;;22.20;18.77;;;;;20.40;100473.00;;;;2000703;29;20253;-79
2023/03/21 02:55:00;;;;;;;26.75;18.63;;;;;20.40;100478.00;;;;1990705;29;20220;-79
2023/03/21 02:56:00;;;;;;;22.43;17.77;;;;;20.40;100476.00;;;;1991418;29;20220;-79
2023/03/21 02:57:02;;;;;;;24.83;17.77;;;;;20.40;100471.00;;;;1990968;29;20250;-79
2023/03/21 02:58:02;;;;;;;18.23;16.13;;;;;20.40;100411.00;;;;2005468;29;20272;-79
2023/03/21 02:59:04;;;;;;;22.93;16.30;;;;;20.40;100458.00;;;;1995422;29;20704;-79
2023/03/21 03:00:11;;;;;;;20.95;15.98;;;;;20.40;100453.00;;;;1991407;29;20220;-79
2023/03/21 03:01:12;;;;;;;19.95;17.02;;;;;20.40;100451.00;;;;2006897;29;20216;-79
2023/03/21 03:02:12;;;;;;;21.20;16.23;;;;;20.40;100456.00;;;;2013469;29;20223;-79
2023/03/21 03:03:13;;;;;;;19.40;15.87;;;;;20.40;100452.00;;;;1998197;29;20237;-79
2023/03/21 03:04:20;;;;;;;21.10;16.10;;;;;20.40;100450.00;;;;1999615;29;20301;-79
2023/03/21 03:05:27;;;;;;;20.20;16.50;;;;;20.40;100407.00;;;;1998861;29;20284;-79
2023/03/21 03:06:36;;;;;;;19.30;14.98;;;;;20.40;100461.00;;;;2005585;29;20314;-79
2023/03/21 03:07:46;;;;;;;18.33;14.15;;;;;20.40;100441.00;;;;2005108;29;20318;-79
2023/03/21 03:09:16;;;;;;;17.40;14.30;;;;;20.40;100448.00;;;;2000659;29;20306;-79
2023/03/21 03:10:28;;;;;;;18.42;14.30;;;;;20.40;100458.00;;;;2002871;29;20991;-79
2023/03/21 03:11:46;;;;;;;19.35;14.50;;;;;20.40;100450.00;;;;2003524;29;20231;-79
2023/03/21 03:13:15;;;;;;;16.30;13.73;;;;;20.40;100434.00;;;;2000974;29;20227;-79
2023/03/21 03:14:19;;;;;;;15.23;12.95;;;;;20.40;100438.00;;;;1999239;29;20232;-79
2023/03/21 03:15:35;;;;;;;16.23;13.63;;;;;20.40;100447.00;;;;1993527;29;20870;-79
2023/03/21 03:16:52;;;;;;;17.58;14.00;;;;;20.40;100448.00;;;;1991541;29;20220;-79
2023/03/21 03:18:18;;;;;;;15.48;12.20;;;;;20.40;100449.00;;;;1996465;29;20569;-79
2023/03/21 03:19:26;;;;;;;16.25;11.90;;;;;20.40;100446.00;;;;2003281;29;20219;-79
2023/03/21 03:20:35;;;;;;;14.98;12.55;;;;;20.30;100445.00;;;;2005261;29;20222;-79
2023/03/21 03:22:01;;;;;;;15.68;12.45;;;;;20.40;100446.00;;;;1994151;29;20238;-79
2023/03/21 03:23:23;;;;;;;15.38;12.82;;;;;20.40;100450.00;;;;1995890;29;20227;-79
2023/03/21 03:24:30;;;;;;;17.60;12.02;;;;;20.40;100447.00;;;;1999219;29;20272;-79
2023/03/21 03:25:52;;;;;;;13.38;11.98;;;;;20.40;100449.00;;;;1999405;29;20307;-79
2023/03/21 03:27:14;;;;;;;15.52;11.75;;;;;20.40;100448.00;;;;2006403;29;20226;-79
2023/03/21 03:28:17;;;;;;;13.60;11.20;;;;;20.40;100440.00;;;;2002743;29;20216;-79
2023/03/21 03:29:17;;;;;;;14.60;11.70;;;;;20.40;100446.00;;;;2002071;29;20223;-79
2023/03/21 03:30:18;;;;;;;14.07;10.77;;;;;20.40;100440.00;;;;2005072;29;20315;-78
2023/03/21 03:31:24;;;;;;;13.20;11.07;;;;;20.40;100442.00;;;;1999652;29;20312;-79
2023/03/21 03:32:30;;;;;;;13.77;11.65;;;;;20.40;100439.00;;;;1999457;29;20240;-80
2023/03/21 03:33:30;;;;;;;11.48;10.27;;;;;20.30;100428.00;;;;1985180;29;20571;-79
2023/03/21 03:34:38;;;;;;;13.13;11.23;;;;;20.30;100437.00;;;;1999161;29;20231;-79
2023/03/21 03:35:38;;;;;;;15.27;11.82;;;;;20.40;100435.00;;;;1988581;29;20611;-79
2023/03/21 03:36:42;;;;;;;12.63;10.23;;;;;20.30;100433.00;;;;1992212;29;20219;-79
2023/03/21 03:37:42;;;;;;;15.75;11.27;;;;;20.30;100432.00;;;;1990092;29;20277;-79
2023/03/21 03:38:42;;;;;;;12.77;9.97;;;;;20.30;100426.00;;;;1983673;29;20247;-79
2023/03/21 03:39:45;;;;;;;13.73;10.30;;;;;20.30;100437.00;;;;1991572;29;20240;-78
2023/03/21 03:40:48;;;;;;;13.10;9.98;;;;;20.30;100431.00;;;;2000833;29;20297;-79
2023/03/21 03:41:52;;;;;;;12.65;10.82;;;;;20.30;100428.00;;;;1988622;29;20256;-79
2023/03/21 03:42:53;;;;;;;13.40;9.88;;;;;20.30;100429.00;;;;1984217;29;20596;-79
2023/03/21 03:43:55;;;;;;;11.98;9.63;;;;;20.30;100421.00;;;;1990757;29;20344;-79
2023/03/21 03:44:55;;;;;;;10.85;9.43;;;;;20.40;100434.00;;;;1991368;29;20220;-79
2023/03/21 03:45:59;;;;;;;11.30;9.83;;;;;20.30;100428.00;;;;1991032;29;20225;-79
2023/03/21 03:47:06;;;;;;;12.13;9.45;;;;;20.30;100424.00;;;;1991307;29;20655;-79
2023/03/21 03:48:24;;;;;;;12.43;9.55;;;;;20.30;100422.00;;;;1991102;29;20239;-79
2023/03/21 03:49:26;;;;;;;13.73;9.32;;;;;20.30;100419.00;;;;2006251;29;20244;-79
2023/03/21 03:50:31;;;;;;;12.68;9.60;;;;;20.30;100426.00;;;;1995647;29;20221;-79
2023/03/21 03:51:36;;;;;;;12.60;8.82;;;;;20.30;100418.00;;;;1999184;29;20255;-79
2023/03/21 03:52:41;;;;;;;12.65;9.80;;;;;20.30;100428.00;;;;1997754;29;20287;-79
2023/03/21 03:53:44;;;;;;;11.68;9.23;;;;;20.30;100411.00;;;;2012655;29;20251;-79
2023/03/21 03:54:45;;;;;;;14.98;9.55;;;;;20.30;100421.00;;;;2005241;29;20307;-79
2023/03/21 03:55:46;;;;;;;11.60;9.20;;;;;20.30;100414.00;;;;1998122;29;20300;-79
2023/03/21 03:56:46;;;;;;;11.37;10.03;;;;;20.30;100412.00;;;;1992946;29;20289;-79
2023/03/21 03:57:47;;;;;;;10.97;9.50;;;;;20.30;100402.00;;;;2005072;29;20768;-79
2023/03/21 03:58:47;;;;;;;12.20;8.50;;;;;20.30;100382.00;;;;2006879;29;20227;-78
2023/03/21 03:59:48;;;;;;;11.97;8.70;;;;;20.30;100408.00;;;;1998647;29;20284;-79
2023/03/21 04:00:49;;;;;;;10.57;8.50;;;;;20.30;100415.00;;;;1991046;29;20248;-79
2023/03/21 04:01:50;;;;;;;11.60;8.50;;;;;20.30;100407.00;;;;2005453;29;20708;-79
2023/03/21 04:02:50;;;;;;;10.70;7.87;;;;;20.30;100407.00;;;;2013940;29;20253;-79
2023/03/21 04:03:50;;;;;;;11.10;8.83;;;;;20.30;100393.00;;;;2012398;29;20713;-79
2023/03/21 04:04:51;;;;;;;13.27;8.87;;;;;20.30;100415.00;;;;2000280;29;20726;-78
2023/03/21 04:05:52;;;;;;;10.10;7.90;;;;;20.30;100403.00;;;;2014735;29;20218;-79
2023/03/21 04:06:53;;;;;;;9.20;8.10;;;;;20.30;100412.00;;;;2021354;29;20717;-79
2023/03/21 04:07:53;;;;;;;8.47;7.33;;;;;20.30;100410.00;;;;2013389;29;20219;-79
2023/03/21 04:08:55;;;;;;;9.80;8.00;;;;;20.30;100409.00;;;;2013191;29;20219;-79
2023/03/21 04:09:56;;;;;;;11.27;7.72;;;;;20.30;100410.00;;;;2005155;29;20228;-79
2023/03/21 04:10:57;;;;;;;10.13;8.30;;;;;20.30;100407.00;;;;2012400;29;20609;-79
2023/03/21 04:11:57;;;;;;;9.73;8.17;;;;;20.30;100406.00;;;;2013742;29;20506;-79
2023/03/21 04:12:57;;;;;;;10.00;8.17;;;;;20.30;100414.00;;;;2012105;29;20219;-79
2023/03/21 04:13:58;;;;;;;9.30;7.60;;;;;20.30;100402.00;;;;2013756;29;20219;-77
2023/03/21 04:14:58;;;;;;;8.97;7.40;;;;;20.30;100407.00;;;;2012650;29;20592;-79
2023/03/21 04:15:59;;;;;;;10.73;7.73;;;;;20.20;100409.00;;;;2009737;29;20641;-79
2023/03/21 04:16:59;;;;;;;10.73;8.00;;;;;20.30;100410.00;;;;2013589;29;20722;-79
2023/03/21 04:17:59;;;;;;;9.70;7.70;;;;;20.30;100405.00;;;;1993720;29;20219;-79
2023/03/21 04:19:00;;;;;;;10.33;7.50;;;;;20.20;100407.00;;;;2007766;29;20219;-79
2023/03/21 04:20:04;;;;;;;8.68;6.95;;;;;20.20;100408.00;;;;2006774;29;20219;-78
2023/03/21 04:21:09;;;;;;;9.73;7.60;;;;;20.20;100403.00;;;;2009843;29;20292;-79
2023/03/21 04:22:11;;;;;;;9.20;6.88;;;;;20.20;100401.00;;;;2024499;29;20226;-78
2023/03/21 04:23:11;;;;;;;9.90;7.50;;;;;20.20;100413.00;;;;2019597;29;20214;-78
2023/03/21 04:24:12;;;;;;;8.33;6.70;;;;;20.20;100404.00;;;;2015360;29;20214;-79
2023/03/21 04:25:13;;;;;;;10.95;7.10;;;;;20.20;100400.00;;;;2013587;29;20262;-79
2023/03/21 04:26:13;;;;;;;11.13;7.27;;;;;20.20;100398.00;;;;2012897;29;20215;-78
2023/03/21 04:27:13;;;;;;;7.90;6.43;;;;;20.20;100407.00;;;;2009258;29;20307;-79
2023/03/21 04:28:14;;;;;;;8.37;7.07;;;;;20.20;100398.00;;;;2015021;29;20251;-79
2023/03/21 04:29:14;;;;;;;10.30;7.03;;;;;20.20;100400.00;;;;2015062;29;20722;-79
2023/03/21 04:30:15;;;;;;;8.40;7.03;;;;;20.20;100407.00;;;;2013443;29;20710;-79
2023/03/21 04:31:16;;;;;;;9.80;6.93;;;;;20.20;100393.00;;;;2014588;29;20253;-78
2023/03/21 04:32:18;;;;;;;8.70;6.70;;;;;20.20;100403.00;;;;2014407;29;20264;-79
2023/03/21 04:33:18;;;;;;;8.00;6.85;;;;;20.20;100404.00;;;;2014757;29;20807;-79
2023/03/21 04:34:22;;;;;;;9.03;6.30;;;;;20.20;100401.00;;;;2005338;29;20222;-79
2023/03/21 04:35:23;;;;;;;10.45;6.40;;;;;20.20;100394.00;;;;2011074;29;20230;-78
2023/03/21 04:36:26;;;;;;;8.10;6.90;;;;;20.20;100398.00;;;;2020542;29;20275;-78
2023/03/21 04:37:26;;;;;;;8.68;6.10;;;;;20.20;100398.00;;;;2014097;29;20495;-78
2023/03/21 04:38:29;;;;;;;6.90;5.80;;;;;20.20;100390.00;;;;2016959;29;20279;-79
2023/03/21 04:39:30;;;;;;;9.05;6.60;;;;;20.20;100394.00;;;;2015065;29;20211;-79
2023/03/21 04:40:30;;;;;;;7.67;6.57;;;;;20.20;100401.00;;;;2014625;29;20611;-79
2023/03/21 04:41:31;;;;;;;7.80;5.90;;;;;20.20;100394.00;;;;2013590;29;20299;-79
2023/03/21 04:42:32;;;;;;;7.07;6.20;;;;;20.20;100404.00;;;;2014383;29;20223;-79
2023/03/21 04:43:32;;;;;;;7.95;6.38;;;;;20.20;100401.00;;;;2014297;29;20247;-79
2023/03/21 04:44:33;;;;;;;8.47;6.23;;;;;20.20;100397.00;;;;2010567;29;20222;-78
2023/03/21 04:45:33;;;;;;;8.60;6.37;;;;;20.20;100403.00;;;;2015049;29;20219;-78
2023/03/21 04:46:33;;;;;;;8.93;6.00;;;;;20.20;100395.00;;;;2015813;29;20631;-79
2023/03/21 04:47:34;;;;;;;8.63;5.70;;;;;20.20;100399.00;;;;2010443;29;20302;-79
2023/03/21 04:48:34;;;;;;;7.00;5.50;;;;;20.20;100398.00;;;;2016010;29;20311;-79
2023/03/21 04:49:35;;;;;;;8.53;6.40;;;;;20.20;100386.00;;;;2006772;29;20215;-79
2023/03/21 04:50:35;;;;;;;6.50;5.70;;;;;20.20;100391.00;;;;2009987;29;20215;-78
2023/03/21 04:51:35;;;;;;;7.13;5.50;;;;;20.20;100401.00;;;;2003695;29;20306;-79
2023/03/21 04:52:36;;;;;;;5.87;5.07;;;;;20.20;100392.00;;;;2001084;29;20224;-79
2023/03/21 04:53:37;;;;;;;9.47;6.30;;;;;20.20;100400.00;;;;1995206;29;20259;-79
2023/03/21 04:54:37;;;;;;;8.63;6.20;;;;;20.20;100384.00;;;;2007022;29;20707;-78
2023/03/21 04:55:37;;;;;;;7.30;5.60;;;;;20.20;100396.00;;;;1992433;29;20235;-79
2023/03/21 04:56:38;;;;;;;6.77;5.53;;;;;20.10;100394.00;;;;2015160;29;20230;-78
2023/03/21 04:57:38;;;;;;;6.77;5.70;;;;;20.20;100389.00;;;;2006496;29;20231;-79
2023/03/21 04:58:39;;;;;;;6.70;5.90;;;;;20.20;100394.00;;;;1998122;29;20220;-79
2023/03/21 04:59:39;;;;;;;7.20;6.30;;;;;20.20;100394.00;;;;2006167;29;20307;-78
2023/03/21 05:00:40;;;;;;;7.33;5.53;;;;;20.20;100386.00;;;;2007589;29;20231;-78
2023/03/21 05:01:42;;;;;;;6.87;5.33;;;;;20.20;100385.00;;;;2003333;29;20230;-79
2023/03/21 05:02:42;;;;;;;6.97;5.10;;;;;20.20;100387.00;;;;2014256;29;20821;-78
2023/03/21 05:03:43;;;;;;;6.53;5.33;;;;;20.20;100381.00;;;;2013971;29;20228;-79
2023/03/21 05:04:43;;;;;;;8.83;6.07;;;;;20.20;100384.00;;;;1998793;29;20227;-78
2023/03/21 05:05:44;;;;;;;8.17;5.70;;;;;20.20;100382.00;;;;2005614;29;20850;-78
2023/03/21 05:06:44;;;;;;;6.53;5.53;;;;;20.20;100388.00;;;;2006501;29;20211;-77
2023/03/21 05:07:45;;;;;;;6.53;5.20;;;;;20.20;100390.00;;;;2009401;29;20218;-79
2023/03/21 05:08:45;;;;;;;7.00;5.93;;;;;20.20;100380.00;;;;2014226;29;20295;-79
2023/03/21 05:09:45;;;;;;;6.40;5.80;;;;;20.20;100386.00;;;;2008137;29;20239;-79
2023/03/21 05:10:46;;;;;;;7.20;6.17;;;;;20.20;100388.00;;;;2003508;29;20227;-79